This is the latest recevied weather packets stored in our database for station/object KI5GCD-13. If no packets are shown the sender has not sent any weather packets the latest 10 day(s).
| Time | Temp. | Humidity | Pressure | Rain* | Wind** | Luminosity | Snow |
|---|---|---|---|---|---|---|---|
| 1777842287 | 27.22° C | 38% | 1009.9 hPa | 0 mm | 0 m/s | - | - |
| 1777841987 | 26.67° C | 41% | 1009.9 hPa | 0 mm | 0.89 m/s, 260° | - | - |
| 1777841687 | 26.67° C | 41% | 1010 hPa | 0 mm | 2.68 m/s, 223° | - | - |
| 1777841387 | 26.67° C | 41% | 1010.1 hPa | 0 mm | 0.89 m/s, 285° | - | - |
| 1777841087 | 26.67° C | 40% | 1010.2 hPa | 0 mm | 0.89 m/s, 316° | - | - |
| 1777840787 | 26.67° C | 42% | 1010.4 hPa | 0 mm | 0.89 m/s, 240° | - | - |
| 1777840487 | 26.67° C | 39% | 1010.5 hPa | 0 mm | 1.79 m/s, 260° | - | - |
| 1777840187 | 26.67° C | 44% | 1010.5 hPa | 0 mm | 0.89 m/s, 256° | - | - |
| 1777839888 | 26.11° C | 40% | 1010.5 hPa | 0 mm | 1.34 m/s, 237° | - | - |
| 1777839587 | 26.67° C | 41% | 1010.9 hPa | 0 mm | 1.79 m/s, 233° | - | - |
| 1777839288 | 26.67° C | 45% | 1010.9 hPa | 0 mm | 1.34 m/s, 262° | - | - |
| 1777838987 | 26.11° C | 41% | 1010.9 hPa | 0 mm | 1.79 m/s, 212° | - | - |
| 1777838687 | 26.67° C | 40% | 1011 hPa | 0 mm | 0.45 m/s, 279° | - | - |
| 1777838387 | 26.11° C | 43% | 1011 hPa | 0 mm | 2.24 m/s, 221° | - | - |
| 1777838087 | 26.11° C | 42% | 1011.4 hPa | 0 mm | 2.68 m/s, 235° | - | - |
| 1777837787 | 25.56° C | 45% | 1011.1 hPa | 0 mm | 1.79 m/s, 227° | - | - |
| 1777837487 | 26.11° C | 45% | 1011.3 hPa | 0 mm | 2.24 m/s, 198° | - | - |
| 1777837187 | 25.56° C | 48% | 1011.3 hPa | 0 mm | 0.45 m/s, 255° | - | - |
| 1777836887 | 25.56° C | 44% | 1011.4 hPa | 0 mm | 3.13 m/s, 237° | - | - |
| 1777836588 | 25.56° C | 44% | 1011.3 hPa | 0 mm | 3.13 m/s, 186° | - | - |
| 1777836287 | 25.56° C | 44% | 1011.5 hPa | 0 mm | 1.34 m/s, 253° | - | - |
| 1777835987 | 25° C | 46% | 1011.3 hPa | 0 mm | 1.34 m/s, 236° | - | - |
| 1777835687 | 25.56° C | 47% | 1011.5 hPa | 0 mm | 0.89 m/s, 250° | - | - |
| 1777835387 | 25.56° C | 45% | 1011.6 hPa | 0 mm | 2.24 m/s, 204° | - | - |
| 1777835087 | 25.56° C | 46% | 1011.7 hPa | 0 mm | 0.89 m/s, 230° | - | - |
* Rain latest hour (hover to see other rain measurements)
** Current wind speed in m/s (hover to see current wind gust speed)